地図

経路データ

SID SEASON NUMBER BASIN SUBBASIN NAME ISO_TIME NATURE LAT LON WMO_WIND WMO_PRES WMO_AGENCY TRACK_TYPE DIST2LAND LANDFALL IFLAG USA_AGENCY USA_ATCF_ID USA_LAT USA_LON USA_RECORD USA_STATUS USA_WIND USA_PRES USA_SSHS USA_R34_NE USA_R34_SE USA_R34_SW USA_R34_NW USA_R50_NE USA_R50_SE USA_R50_SW USA_R50_NW USA_R64_NE USA_R64_SE USA_R64_SW USA_R64_NW USA_POCI USA_ROCI USA_RMW USA_EYE TOKYO_LAT TOKYO_LON TOKYO_GRADE TOKYO_WIND TOKYO_PRES TOKYO_R50_DIR TOKYO_R50_LONG TOKYO_R50_SHORT TOKYO_R30_DIR TOKYO_R30_LONG TOKYO_R30_SHORT TOKYO_LAND CMA_LAT CMA_LON CMA_CAT CMA_WIND CMA_PRES HKO_LAT HKO_LON HKO_CAT HKO_WIND HKO_PRES NEWDELHI_LAT NEWDELHI_LON NEWDELHI_GRADE NEWDELHI_WIND NEWDELHI_PRES NEWDELHI_CI NEWDELHI_DP NEWDELHI_POCI REUNION_LAT REUNION_LON REUNION_TYPE REUNION_WIND REUNION_PRES REUNION_TNUM REUNION_CI REUNION_RMW REUNION_R34_NE REUNION_R34_SE REUNION_R34_SW REUNION_R34_NW REUNION_R50_NE REUNION_R50_SE REUNION_R50_SW REUNION_R50_NW REUNION_R64_NE REUNION_R64_SE REUNION_R64_SW REUNION_R64_NW BOM_LAT BOM_LON BOM_TYPE BOM_WIND BOM_PRES BOM_TNUM BOM_CI BOM_RMW BOM_R34_NE BOM_R34_SE BOM_R34_SW BOM_R34_NW BOM_R50_NE BOM_R50_SE BOM_R50_SW BOM_R50_NW BOM_R64_NE BOM_R64_SE BOM_R64_SW BOM_R64_NW BOM_ROCI BOM_POCI BOM_EYE BOM_POS_METHOD BOM_PRES_METHOD NADI_LAT NADI_LON NADI_CAT NADI_WIND NADI_PRES WELLINGTON_LAT WELLINGTON_LON WELLINGTON_WIND WELLINGTON_PRES DS824_LAT DS824_LON DS824_STAGE DS824_WIND DS824_PRES TD9636_LAT TD9636_LON TD9636_STAGE TD9636_WIND TD9636_PRES TD9635_LAT TD9635_LON TD9635_WIND TD9635_PRES TD9635_ROCI NEUMANN_LAT NEUMANN_LON NEUMANN_CLASS NEUMANN_WIND NEUMANN_PRES MLC_LAT MLC_LON MLC_CLASS MLC_WIND MLC_PRES USA_GUST BOM_GUST BOM_GUST_PER REUNION_GUST REUNION_GUST_PER USA_SEAHGT USA_SEARAD_NE USA_SEARAD_SE USA_SEARAD_SW USA_SEARAD_NW STORM_SPEED STORM_DIR
1895169N33287 1895 13 NA NA NOT_NAMED 1895-06-17 12:00:00 TS 32.8000 -73.0000 main 383 383 _____________O -1 32.8000 -73.0000 TS 35 3 40
1895169N33287 1895 13 NA NA NOT_NAMED 1895-06-17 15:00:00 TS 32.9000 -72.8901 main 384 384 _____________P -1 32.9000 -72.8901 TS 37 3 40
1895169N33287 1895 13 NA NA NOT_NAMED 1895-06-17 18:00:00 TS 33.0000 -72.8000 main 385 379 _____________O -1 33.0000 -72.8000 TS 40 2 33
1895169N33287 1895 13 NA NA NOT_NAMED 1895-06-17 21:00:00 TS 33.1000 -72.7425 main 387 381 _____________P -1 33.1000 -72.7425 TS 40 2 23
1895169N33287 1895 13 NA NA NOT_NAMED 1895-06-18 00:00:00 TS 33.2000 -72.7000 main 381 375 _____________O -1 33.2000 -72.7000 TS 40 2 22
1895169N33287 1895 13 NA NA NOT_NAMED 1895-06-18 03:00:00 TS 33.3075 -72.6500 main 382 374 _____________P -1 33.3075 -72.6500 TS 42 2 23
1895169N33287 1895 13 NA NA NOT_NAMED 1895-06-18 06:00:00 TS 33.4000 -72.6000 main 374 374 _____________O -1 33.4000 -72.6000 TS 45 1 29
1895169N33287 1895 13 NA NA NOT_NAMED 1895-06-18 09:00:00 TS 33.4274 -72.5723 main 374 374 _____________P -1 33.4274 -72.5723 TS 45 1 37
1895169N33287 1895 13 NA NA NOT_NAMED 1895-06-18 12:00:00 TS 33.5000 -72.5000 main 374 366 _____________O -1 33.5000 -72.5000 TS 45 4 36
1895169N33287 1895 13 NA NA NOT_NAMED 1895-06-18 15:00:00 TS 33.7201 -72.3227 main 373 366 _____________P -1 33.7201 -72.3227 TS 45 6 34
1895169N33287 1895 13 NA NA NOT_NAMED 1895-06-18 18:00:00 TS 34.0000 -72.1000 main 368 362 _____________O -1 34.0000 -72.1000 TS 45 6 33
1895169N33287 1895 13 NA NA NOT_NAMED 1895-06-18 21:00:00 TS 34.2499 -71.9073 main 372 367 _____________P -1 34.2499 -71.9073 TS 45 6 34
1895169N33287 1895 13 NA NA NOT_NAMED 1895-06-19 00:00:00 TS 34.5000 -71.7000 main 373 373 _____________O -1 34.5000 -71.7000 TS 45 6 37
1895169N33287 1895 13 NA NA NOT_NAMED 1895-06-19 03:00:00 TS 34.7500 -71.4500 main 387 387 _____________P -1 34.7500 -71.4500 TS 47 6 39
1895169N33287 1895 13 NA NA NOT_NAMED 1895-06-19 06:00:00 TS 35.0000 -71.2000 main 398 396 _____________O -1 35.0000 -71.2000 TS 50 6 36
1895169N33287 1895 13 NA NA NOT_NAMED 1895-06-19 09:00:00 TS 35.2574 -70.9924 main 409 409 _____________P -1 35.2574 -70.9924 TS 50 6 33
1895169N33287 1895 13 NA NA NOT_NAMED 1895-06-19 12:00:00 TS 35.5000 -70.8000 main 424 424 _____________O -1 35.5000 -70.8000 TS 50 6 36
1895169N33287 1895 13 NA NA NOT_NAMED 1895-06-19 15:00:00 TS 35.7075 -70.5924 main 441 441 _____________P -1 35.7075 -70.5924 TS 50 5 39
1895169N33287 1895 13 NA NA NOT_NAMED 1895-06-19 18:00:00 TS 35.9000 -70.4000 main 458 458 _____________O -1 35.9000 -70.4000 TS 50 5 36
1895169N33287 1895 13 NA NA NOT_NAMED 1895-06-19 21:00:00 TS 36.0999 -70.2424 main 477 477 _____________P -1 36.0999 -70.2424 TS 50 5 31
1895169N33287 1895 13 NA NA NOT_NAMED 1895-06-20 00:00:00 TS 36.3000 -70.1000 main 487 487 _____________O -1 36.3000 -70.1000 TS 50 5 30
1895169N33287 1895 13 NA NA NOT_NAMED 1895-06-20 03:00:00 TS 36.5075 -69.9500 main 499 495 _____________P -1 36.5075 -69.9500 TS 50 5 31
1895169N33287 1895 13 NA NA NOT_NAMED 1895-06-20 06:00:00 TS 36.7000 -69.8000 main 499 494 _____________O -1 36.7000 -69.8000 TS 50 5 30
1895169N33287 1895 13 NA NA NOT_NAMED 1895-06-20 09:00:00 TS 36.9024 -69.6727 main 494 494 _____________P -1 36.9024 -69.6727 TS 47 4 39
1895169N33287 1895 13 NA NA NOT_NAMED 1895-06-20 12:00:00 TS 37.0000 -69.5000 main 500 500 _____________O -1 37.0000 -69.5000 TS 45 4 91
1895169N33287 1895 13 NA NA NOT_NAMED 1895-06-20 15:00:00 TS 36.8951 -69.2146 main 524 524 _____________P -1 36.8951 -69.2146 TS 45 6 122
1895169N33287 1895 13 NA NA NOT_NAMED 1895-06-20 18:00:00 TS 36.7000 -68.9000 main 556 556 _____________O -1 36.7000 -68.9000 TS 45 6 127
1895169N33287 1895 13 NA NA NOT_NAMED 1895-06-20 21:00:00 TS 36.5499 -68.6502 main 582 582 _____________P -1 36.5499 -68.6502 TS 45 5 127
1895169N33287 1895 13 NA NA NOT_NAMED 1895-06-21 00:00:00 TS 36.4000 -68.4000 main 601 601 _____________O -1 36.4000 -68.4000 TS 45 5 124
1895169N33287 1895 13 NA NA NOT_NAMED 1895-06-21 03:00:00 TS 36.2500 -68.1000 main 620 620 _____________P -1 36.2500 -68.1000 TS 45 6 122
1895169N33287 1895 13 NA NA NOT_NAMED 1895-06-21 06:00:00 TS 36.1000 -67.8000 main 651 651 _____________O -1 36.1000 -67.8000 TS 45 5 125
1895169N33287 1895 13 NA NA NOT_NAMED 1895-06-21 09:00:00 TS 35.9348 -67.5500 main 678 678 _____________P -1 35.9348 -67.5500 TS 42 5 127
1895169N33287 1895 13 NA NA NOT_NAMED 1895-06-21 12:00:00 TS 35.8000 -67.3000 main 697 697 _____________O -1 35.8000 -67.3000 TS 40 5 114
1895169N33287 1895 13 NA NA NOT_NAMED 1895-06-21 15:00:00 TS 35.7350 -67.0002 main 716 716 _____________P -1 35.7350 -67.0002 TS 40 5 102
1895169N33287 1895 13 NA NA NOT_NAMED 1895-06-21 18:00:00 ET 35.7000 -66.7000 main 726 726 _____________O -1 35.7000 -66.7000 EX 40 5 102
1895169N33287 1895 13 NA NA NOT_NAMED 1895-06-21 21:00:00 ET 35.6423 -66.4500 main 747 747 _____________P -1 35.6423 -66.4500 EX 40 4 104
1895169N33287 1895 13 NA NA NOT_NAMED 1895-06-22 00:00:00 ET 35.6000 -66.2000 main 754 754 _____________O -1 35.6000 -66.2000 EX 40 4 96
1895169N33287 1895 13 NA NA NOT_NAMED 1895-06-22 03:00:00 ET 35.5925 -65.9076 main 766 766 _____________P -1 35.5925 -65.9076 EX 40 5 90
1895169N33287 1895 13 NA NA NOT_NAMED 1895-06-22 06:00:00 ET 35.6000 -65.6000 main 778 778 _____________O -1 35.6000 -65.6000 EX 40 5 92
1895169N33287 1895 13 NA NA NOT_NAMED 1895-06-22 09:00:00 ET 35.5771 -65.3296 main 791 791 _____________P -1 35.5771 -65.3296 EX 40 5 90
1895169N33287 1895 13 NA NA NOT_NAMED 1895-06-22 12:00:00 ET 35.6000 -65.0000 main 805 805 _____________O -1 35.6000 -65.0000 EX 40 7 76
1895169N33287 1895 13 NA NA NOT_NAMED 1895-06-22 15:00:00 ET 35.7351 -64.5304 main 819 810 _____________P -1 35.7351 -64.5304 EX 40 9 70
1895169N33287 1895 13 NA NA NOT_NAMED 1895-06-22 18:00:00 ET 35.9000 -64.0000 main 827 827 _____________O -1 35.9000 -64.0000 EX 40 9 72
1895169N33287 1895 13 NA NA NOT_NAMED 1895-06-22 21:00:00 ET 36.0073 -63.4997 main 846 842 _____________P -1 36.0073 -63.4997 EX 40 8 76
1895169N33287 1895 13 NA NA NOT_NAMED 1895-06-23 00:00:00 ET 36.1000 -63.0000 main 846 841 _____________O -1 36.1000 -63.0000 EX 40 8 77
1895169N33287 1895 13 NA NA NOT_NAMED 1895-06-23 03:00:00 ET 36.1998 -62.4999 main 846 840 _____________P -1 36.1998 -62.4999 EX 40 8 76
1895169N33287 1895 13 NA NA NOT_NAMED 1895-06-23 06:00:00 ET 36.3000 -62.0000 main 848 848 _____________O -1 36.3000 -62.0000 EX 40 8 82
1895169N33287 1895 13 NA NA NOT_NAMED 1895-06-23 09:00:00 ET 36.3169 -61.5277 main 863 856 _____________P -1 36.3169 -61.5277 EX 40 8 76
1895169N33287 1895 13 NA NA NOT_NAMED 1895-06-23 12:00:00 ET 36.5000 -61.0000 main 860 829 _____________O -1 36.5000 -61.0000 EX 40 12 52
1895169N33287 1895 13 NA NA NOT_NAMED 1895-06-23 15:00:00 ET 37.0751 -60.3315 main 827 794 _____________P -1 37.0751 -60.3315 EX 40 17 41
1895169N33287 1895 13 NA NA NOT_NAMED 1895-06-23 18:00:00 ET 37.8000 -59.6000 main 794 771 _____________O -1 37.8000 -59.6000 EX 40 17 41
1895169N33287 1895 13 NA NA NOT_NAMED 1895-06-23 21:00:00 ET 38.3996 -58.8984 main 771 729 _____________P -1 38.3996 -58.8984 EX 40 16 42
1895169N33287 1895 13 NA NA NOT_NAMED 1895-06-24 00:00:00 ET 39.0000 -58.2000 main 729 685 _____________O -1 39.0000 -58.2000 EX 40 17 41
1895169N33287 1895 13 NA NA NOT_NAMED 1895-06-24 03:00:00 ET 39.6497 -57.4919 main 688 647 _____________P -1 39.6497 -57.4919 EX 40 17 40
1895169N33287 1895 13 NA NA NOT_NAMED 1895-06-24 06:00:00 ET 40.3000 -56.8000 main 647 621 _____________O -1 40.3000 -56.8000 EX 40 17 39
1895169N33287 1895 13 NA NA NOT_NAMED 1895-06-24 09:00:00 ET 40.9447 -56.1273 main 626 586 _____________P -1 40.9447 -56.1273 EX 37 16 39
1895169N33287 1895 13 NA NA NOT_NAMED 1895-06-24 12:00:00 ET 41.5000 -55.5000 main 586 534 _____________O -1 41.5000 -55.5000 EX 35 13 44
1895169N33287 1895 13 NA NA NOT_NAMED 1895-06-24 15:00:00 ET 41.8871 -54.9257 main 532 493 _____________P -1 41.8871 -54.9257 EX 35 11 49
1895169N33287 1895 13 NA NA NOT_NAMED 1895-06-24 18:00:00 ET 42.2000 -54.4000 main 493 456 _____________O -1 42.2000 -54.4000 EX 35 10 49
1895169N33287 1895 13 NA NA NOT_NAMED 1895-06-24 21:00:00 ET 42.5496 -53.8992 main 456 411 _____________P -1 42.5496 -53.8992 EX 35 10 46
1895169N33287 1895 13 NA NA NOT_NAMED 1895-06-25 00:00:00 ET 42.9000 -53.4000 main 411 378 _____________O -1 42.9000 -53.4000 EX 35 10 47
1895169N33287 1895 13 NA NA NOT_NAMED 1895-06-25 03:00:00 ET 43.2574 -52.8498 main 368 339 _____________P -1 43.2574 -52.8498 EX 35 11 49
1895169N33287 1895 13 NA NA NOT_NAMED 1895-06-25 06:00:00 ET 43.6000 -52.3000 main 340 314 _____________O -1 43.6000 -52.3000 EX 35 10 46
1895169N33287 1895 13 NA NA NOT_NAMED 1895-06-25 09:00:00 ET 43.9587 -51.8528 main 306 297 _____________P -1 43.9587 -51.8528 EX 35 9 50
1895169N33287 1895 13 NA NA NOT_NAMED 1895-06-25 12:00:00 ET 44.2000 -51.3000 main 304 304 _____________O -1 44.2000 -51.3000 EX 35 10 76
1895169N33287 1895 13 NA NA NOT_NAMED 1895-06-25 15:00:00 ET 44.2030 -50.4583 main 339 339 _____________P -1 44.2030 -50.4583 EX 35 13 94
1895169N33287 1895 13 NA NA NOT_NAMED 1895-06-25 18:00:00 ET 44.1000 -49.5000 main 400 400 _____________O -1 44.1000 -49.5000 EX 35 13 97
1895169N33287 1895 13 NA NA NOT_NAMED 1895-06-25 21:00:00 ET 44.0491 -48.6077 main 460 460 _____________P -1 44.0491 -48.6077 EX 35 13 94
1895169N33287 1895 13 NA NA NOT_NAMED 1895-06-26 00:00:00 ET 44.0000 -47.7000 main 516 516 _____________O -1 44.0000 -47.7000 EX 35 13 94
1895169N33287 1895 13 NA NA NOT_NAMED 1895-06-26 03:00:00 ET 43.9496 -46.7501 main 579 579 _____________P -1 43.9496 -46.7501 EX 32 14 94
1895169N33287 1895 13 NA NA NOT_NAMED 1895-06-26 06:00:00 ET 43.9000 -45.8000 main 646 646 _____________O -1 43.9000 -45.8000 EX 30 13 94
1895169N33287 1895 13 NA NA NOT_NAMED 1895-06-26 09:00:00 ET 43.8512 -44.8873 main 707 707 _____________P -1 43.8512 -44.8873 EX 30 13 94
1895169N33287 1895 13 NA NA NOT_NAMED 1895-06-26 12:00:00 ET 43.8000 -44.0000 main 775 _____________O -1 43.8000 -44.0000 EX 30 13 95

IBTrACS Databaseについて

本データベースは、米国NOAAが公開する1842年以降の世界の熱帯低気圧のベストトラックデータアーカイブInternational Best Track Archive for Climate Stewardship (IBTrACS)を、ウェブで閲覧しやすい形式に変換したものです。

最終更新日:2021-10-27